sensor_id;sensor_type;location;lat;lon;timestamp;temperature;humidity
23629;DHT22;11991;57.150;-2.134;2023-10-09T00:02:08;12.00;99.90
23629;DHT22;11991;57.150;-2.134;2023-10-09T00:04:41;12.10;99.90
23629;DHT22;11991;57.150;-2.134;2023-10-09T00:07:10;12.10;99.90
23629;DHT22;11991;57.150;-2.134;2023-10-09T00:09:39;12.10;99.90
23629;DHT22;11991;57.150;-2.134;2023-10-09T00:12:19;12.10;99.90
23629;DHT22;11991;57.150;-2.134;2023-10-09T00:14:51;12.20;99.90
23629;DHT22;11991;57.150;-2.134;2023-10-09T00:17:37;12.20;99.90
23629;DHT22;11991;57.150;-2.134;2023-10-09T00:20:05;12.20;99.90
23629;DHT22;11991;57.150;-2.134;2023-10-09T00:22:44;12.20;99.90
23629;DHT22;11991;57.150;-2.134;2023-10-09T00:25:13;12.30;99.90
23629;DHT22;11991;57.150;-2.134;2023-10-09T00:27:50;12.30;99.90
23629;DHT22;11991;57.150;-2.134;2023-10-09T00:30:18;12.30;99.90
23629;DHT22;11991;57.150;-2.134;2023-10-09T00:32:48;12.30;99.90
23629;DHT22;11991;57.150;-2.134;2023-10-09T00:35:38;12.30;99.90
23629;DHT22;11991;57.150;-2.134;2023-10-09T00:38:24;12.30;99.90
23629;DHT22;11991;57.150;-2.134;2023-10-09T00:40:59;12.30;99.90
23629;DHT22;11991;57.150;-2.134;2023-10-09T00:43:35;12.30;99.90
23629;DHT22;11991;57.150;-2.134;2023-10-09T00:46:05;12.30;99.90
23629;DHT22;11991;57.150;-2.134;2023-10-09T00:48:39;12.30;99.90
23629;DHT22;11991;57.150;-2.134;2023-10-09T00:51:08;12.20;99.90
23629;DHT22;11991;57.150;-2.134;2023-10-09T00:53:48;12.20;99.90
23629;DHT22;11991;57.150;-2.134;2023-10-09T00:56:20;12.20;99.90
23629;DHT22;11991;57.150;-2.134;2023-10-09T00:58:55;12.20;99.90
23629;DHT22;11991;57.150;-2.134;2023-10-09T01:01:23;12.20;99.90
23629;DHT22;11991;57.150;-2.134;2023-10-09T01:03:53;12.10;99.90
23629;DHT22;11991;57.150;-2.134;2023-10-09T01:06:22;12.10;99.90
23629;DHT22;11991;57.150;-2.134;2023-10-09T01:08:54;12.10;99.90
23629;DHT22;11991;57.150;-2.134;2023-10-09T01:11:36;12.00;99.90
23629;DHT22;11991;57.150;-2.134;2023-10-09T01:14:15;12.00;99.90
23629;DHT22;11991;57.150;-2.134;2023-10-09T01:16:42;11.90;99.90
23629;DHT22;11991;57.150;-2.134;2023-10-09T01:19:11;11.90;99.90
23629;DHT22;11991;57.150;-2.134;2023-10-09T01:21:49;11.90;99.90
23629;DHT22;11991;57.150;-2.134;2023-10-09T01:24:17;11.90;99.90
23629;DHT22;11991;57.150;-2.134;2023-10-09T01:26:47;11.90;99.90
23629;DHT22;11991;57.150;-2.134;2023-10-09T01:29:18;11.80;99.90
23629;DHT22;11991;57.150;-2.134;2023-10-09T01:31:51;11.80;99.90
23629;DHT22;11991;57.150;-2.134;2023-10-09T01:37:05;11.80;99.90
23629;DHT22;11991;57.150;-2.134;2023-10-09T01:39:39;11.80;99.90
23629;DHT22;11991;57.150;-2.134;2023-10-09T01:42:08;11.90;99.90
23629;DHT22;11991;57.150;-2.134;2023-10-09T01:44:36;11.90;99.90
23629;DHT22;11991;57.150;-2.134;2023-10-09T01:47:10;11.90;99.90
23629;DHT22;11991;57.150;-2.134;2023-10-09T01:49:41;11.90;99.90
23629;DHT22;11991;57.150;-2.134;2023-10-09T01:52:11;11.90;99.90
23629;DHT22;11991;57.150;-2.134;2023-10-09T01:54:44;11.90;99.90
23629;DHT22;11991;57.150;-2.134;2023-10-09T01:57:18;11.90;99.90
23629;DHT22;11991;57.150;-2.134;2023-10-09T01:59:52;11.90;99.90
23629;DHT22;11991;57.150;-2.134;2023-10-09T02:02:23;12.00;99.90
23629;DHT22;11991;57.150;-2.134;2023-10-09T02:04:57;12.00;99.90
23629;DHT22;11991;57.150;-2.134;2023-10-09T02:07:40;12.00;99.90
23629;DHT22;11991;57.150;-2.134;2023-10-09T02:10:23;12.00;99.90
23629;DHT22;11991;57.150;-2.134;2023-10-09T02:12:58;12.10;99.90
23629;DHT22;11991;57.150;-2.134;2023-10-09T02:15:38;12.10;99.90
23629;DHT22;11991;57.150;-2.134;2023-10-09T02:18:17;12.10;99.90
23629;DHT22;11991;57.150;-2.134;2023-10-09T02:20:47;12.10;99.90
23629;DHT22;11991;57.150;-2.134;2023-10-09T02:23:22;12.10;99.90
23629;DHT22;11991;57.150;-2.134;2023-10-09T02:25:57;12.10;99.90
23629;DHT22;11991;57.150;-2.134;2023-10-09T02:28:29;12.10;99.90
23629;DHT22;11991;57.150;-2.134;2023-10-09T02:31:00;12.10;99.90
23629;DHT22;11991;57.150;-2.134;2023-10-09T02:33:29;12.10;99.90
23629;DHT22;11991;57.150;-2.134;2023-10-09T02:36:00;12.20;99.90
23629;DHT22;11991;57.150;-2.134;2023-10-09T02:38:32;12.20;99.90
23629;DHT22;11991;57.150;-2.134;2023-10-09T02:41:05;12.20;99.90
23629;DHT22;11991;57.150;-2.134;2023-10-09T02:43:33;12.20;99.90
23629;DHT22;11991;57.150;-2.134;2023-10-09T02:46:07;12.20;99.90
23629;DHT22;11991;57.150;-2.134;2023-10-09T02:48:41;12.20;99.90
23629;DHT22;11991;57.150;-2.134;2023-10-09T02:51:12;12.20;99.90
23629;DHT22;11991;57.150;-2.134;2023-10-09T02:53:49;12.20;99.90
23629;DHT22;11991;57.150;-2.134;2023-10-09T02:56:16;12.20;99.90
23629;DHT22;11991;57.150;-2.134;2023-10-09T02:58:54;12.30;99.90
23629;DHT22;11991;57.150;-2.134;2023-10-09T03:01:22;12.30;99.90
23629;DHT22;11991;57.150;-2.134;2023-10-09T03:03:50;12.30;99.90
23629;DHT22;11991;57.150;-2.134;2023-10-09T03:06:17;12.40;99.90
23629;DHT22;11991;57.150;-2.134;2023-10-09T03:08:52;12.40;99.90
23629;DHT22;11991;57.150;-2.134;2023-10-09T03:11:21;12.40;99.90
23629;DHT22;11991;57.150;-2.134;2023-10-09T03:13:50;12.40;99.90
23629;DHT22;11991;57.150;-2.134;2023-10-09T03:16:18;12.30;99.90
23629;DHT22;11991;57.150;-2.134;2023-10-09T03:18:51;12.30;99.90
23629;DHT22;11991;57.150;-2.134;2023-10-09T03:21:19;12.30;99.90
23629;DHT22;11991;57.150;-2.134;2023-10-09T03:23:47;12.30;99.90
23629;DHT22;11991;57.150;-2.134;2023-10-09T03:26:18;12.30;99.90
23629;DHT22;11991;57.150;-2.134;2023-10-09T03:28:49;12.30;99.90
23629;DHT22;11991;57.150;-2.134;2023-10-09T03:31:16;12.30;99.90
23629;DHT22;11991;57.150;-2.134;2023-10-09T03:33:43;12.20;99.90
23629;DHT22;11991;57.150;-2.134;2023-10-09T03:36:10;12.20;99.90
23629;DHT22;11991;57.150;-2.134;2023-10-09T03:38:39;12.10;99.90
23629;DHT22;11991;57.150;-2.134;2023-10-09T03:41:06;12.10;99.90
23629;DHT22;11991;57.150;-2.134;2023-10-09T03:43:34;12.10;99.90
23629;DHT22;11991;57.150;-2.134;2023-10-09T03:46:14;12.10;99.90
23629;DHT22;11991;57.150;-2.134;2023-10-09T03:49:00;12.10;99.90
23629;DHT22;11991;57.150;-2.134;2023-10-09T03:51:29;12.10;99.90
23629;DHT22;11991;57.150;-2.134;2023-10-09T03:53:56;12.20;99.90
23629;DHT22;11991;57.150;-2.134;2023-10-09T03:56:24;12.20;99.90
23629;DHT22;11991;57.150;-2.134;2023-10-09T03:58:51;12.10;99.90
23629;DHT22;11991;57.150;-2.134;2023-10-09T04:01:21;12.20;99.90
23629;DHT22;11991;57.150;-2.134;2023-10-09T04:04:05;12.20;99.90
23629;DHT22;11991;57.150;-2.134;2023-10-09T04:06:34;12.30;99.90
23629;DHT22;11991;57.150;-2.134;2023-10-09T04:09:03;12.30;99.90
23629;DHT22;11991;57.150;-2.134;2023-10-09T04:11:46;12.30;99.90
23629;DHT22;11991;57.150;-2.134;2023-10-09T04:14:14;12.30;99.90
23629;DHT22;11991;57.150;-2.134;2023-10-09T04:17:02;12.30;99.90
23629;DHT22;11991;57.150;-2.134;2023-10-09T04:19:47;12.40;99.90
23629;DHT22;11991;57.150;-2.134;2023-10-09T04:22:33;12.40;99.90
23629;DHT22;11991;57.150;-2.134;2023-10-09T04:25:06;12.40;99.90
23629;DHT22;11991;57.150;-2.134;2023-10-09T04:27:53;12.40;99.90
23629;DHT22;11991;57.150;-2.134;2023-10-09T04:30:20;12.40;99.90
23629;DHT22;11991;57.150;-2.134;2023-10-09T04:32:50;12.30;99.90
23629;DHT22;11991;57.150;-2.134;2023-10-09T04:35:22;12.30;99.90
23629;DHT22;11991;57.150;-2.134;2023-10-09T04:37:50;12.30;99.90
23629;DHT22;11991;57.150;-2.134;2023-10-09T04:40:32;12.30;99.90
23629;DHT22;11991;57.150;-2.134;2023-10-09T04:43:15;12.30;99.90
23629;DHT22;11991;57.150;-2.134;2023-10-09T04:45:48;12.30;99.90
23629;DHT22;11991;57.150;-2.134;2023-10-09T04:48:34;12.30;99.90
23629;DHT22;11991;57.150;-2.134;2023-10-09T04:51:05;12.30;99.90
23629;DHT22;11991;57.150;-2.134;2023-10-09T04:53:59;12.30;99.90
23629;DHT22;11991;57.150;-2.134;2023-10-09T04:56:41;12.30;99.90
23629;DHT22;11991;57.150;-2.134;2023-10-09T04:59:20;12.30;99.90
23629;DHT22;11991;57.150;-2.134;2023-10-09T05:01:52;12.30;99.90
23629;DHT22;11991;57.150;-2.134;2023-10-09T05:04:26;12.30;99.90
23629;DHT22;11991;57.150;-2.134;2023-10-09T05:07:06;12.30;99.90
23629;DHT22;11991;57.150;-2.134;2023-10-09T05:10:03;12.30;99.90
23629;DHT22;11991;57.150;-2.134;2023-10-09T05:12:52;12.30;99.90
23629;DHT22;11991;57.150;-2.134;2023-10-09T05:15:25;12.20;99.90
23629;DHT22;11991;57.150;-2.134;2023-10-09T05:18:01;12.30;99.90
23629;DHT22;11991;57.150;-2.134;2023-10-09T05:20:36;12.30;99.90
23629;DHT22;11991;57.150;-2.134;2023-10-09T05:23:22;12.30;99.90
23629;DHT22;11991;57.150;-2.134;2023-10-09T05:25:53;12.30;99.90
23629;DHT22;11991;57.150;-2.134;2023-10-09T05:28:20;12.30;99.90
23629;DHT22;11991;57.150;-2.134;2023-10-09T05:31:03;12.30;99.90
23629;DHT22;11991;57.150;-2.134;2023-10-09T05:33:36;12.30;99.90
23629;DHT22;11991;57.150;-2.134;2023-10-09T05:36:05;12.30;99.90
23629;DHT22;11991;57.150;-2.134;2023-10-09T05:38:59;12.30;99.90
23629;DHT22;11991;57.150;-2.134;2023-10-09T05:41:26;12.30;99.90
23629;DHT22;11991;57.150;-2.134;2023-10-09T05:44:15;12.30;99.90
23629;DHT22;11991;57.150;-2.134;2023-10-09T05:47:00;12.20;99.90
23629;DHT22;11991;57.150;-2.134;2023-10-09T05:49:46;12.20;99.90
23629;DHT22;11991;57.150;-2.134;2023-10-09T05:52:13;12.20;99.90
23629;DHT22;11991;57.150;-2.134;2023-10-09T05:54:59;12.20;99.90
23629;DHT22;11991;57.150;-2.134;2023-10-09T05:57:48;12.20;99.90
23629;DHT22;11991;57.150;-2.134;2023-10-09T06:00:30;12.20;99.90
23629;DHT22;11991;57.150;-2.134;2023-10-09T06:03:16;12.20;99.90
23629;DHT22;11991;57.150;-2.134;2023-10-09T06:05:51;12.20;99.90
23629;DHT22;11991;57.150;-2.134;2023-10-09T06:08:30;12.20;99.90
23629;DHT22;11991;57.150;-2.134;2023-10-09T06:11:14;12.20;99.90
23629;DHT22;11991;57.150;-2.134;2023-10-09T06:14:01;12.20;99.90
23629;DHT22;11991;57.150;-2.134;2023-10-09T06:16:32;12.20;99.90
23629;DHT22;11991;57.150;-2.134;2023-10-09T06:19:19;12.20;99.90
23629;DHT22;11991;57.150;-2.134;2023-10-09T06:21:46;12.20;99.90
23629;DHT22;11991;57.150;-2.134;2023-10-09T06:24:20;12.20;99.90
23629;DHT22;11991;57.150;-2.134;2023-10-09T06:26:50;12.20;99.90
23629;DHT22;11991;57.150;-2.134;2023-10-09T06:29:30;12.20;99.90
23629;DHT22;11991;57.150;-2.134;2023-10-09T06:32:04;12.30;99.90
23629;DHT22;11991;57.150;-2.134;2023-10-09T06:35:02;12.30;99.90
23629;DHT22;11991;57.150;-2.134;2023-10-09T06:37:44;12.30;99.90
23629;DHT22;11991;57.150;-2.134;2023-10-09T06:40:40;12.20;99.90
23629;DHT22;11991;57.150;-2.134;2023-10-09T06:43:20;12.20;99.90
23629;DHT22;11991;57.150;-2.134;2023-10-09T06:45:51;12.20;99.90
23629;DHT22;11991;57.150;-2.134;2023-10-09T06:48:36;12.20;99.90
23629;DHT22;11991;57.150;-2.134;2023-10-09T06:51:11;12.20;99.90
23629;DHT22;11991;57.150;-2.134;2023-10-09T06:53:55;12.20;99.90
23629;DHT22;11991;57.150;-2.134;2023-10-09T06:56:25;12.20;99.90
23629;DHT22;11991;57.150;-2.134;2023-10-09T06:59:00;12.20;99.90
23629;DHT22;11991;57.150;-2.134;2023-10-09T07:01:31;12.20;99.90
23629;DHT22;11991;57.150;-2.134;2023-10-09T07:04:05;12.20;99.90
23629;DHT22;11991;57.150;-2.134;2023-10-09T07:06:51;12.20;99.90
23629;DHT22;11991;57.150;-2.134;2023-10-09T07:09:19;12.20;99.90
23629;DHT22;11991;57.150;-2.134;2023-10-09T07:11:51;12.20;99.90
23629;DHT22;11991;57.150;-2.134;2023-10-09T07:14:23;12.30;99.90
23629;DHT22;11991;57.150;-2.134;2023-10-09T07:17:19;12.20;99.90
23629;DHT22;11991;57.150;-2.134;2023-10-09T07:19:51;12.30;99.90
23629;DHT22;11991;57.150;-2.134;2023-10-09T07:22:22;12.20;99.90
23629;DHT22;11991;57.150;-2.134;2023-10-09T07:24:53;12.20;99.90
23629;DHT22;11991;57.150;-2.134;2023-10-09T07:27:25;12.20;99.90
23629;DHT22;11991;57.150;-2.134;2023-10-09T07:30:16;12.20;99.90
23629;DHT22;11991;57.150;-2.134;2023-10-09T07:33:09;12.10;99.90
23629;DHT22;11991;57.150;-2.134;2023-10-09T07:35:48;12.20;99.90
23629;DHT22;11991;57.150;-2.134;2023-10-09T07:38:23;12.10;99.90
23629;DHT22;11991;57.150;-2.134;2023-10-09T07:40:56;12.20;99.90
23629;DHT22;11991;57.150;-2.134;2023-10-09T07:43:43;12.20;99.90
23629;DHT22;11991;57.150;-2.134;2023-10-09T07:46:15;12.20;99.90
23629;DHT22;11991;57.150;-2.134;2023-10-09T07:49:04;12.20;99.90
23629;DHT22;11991;57.150;-2.134;2023-10-09T07:51:41;12.20;99.90
23629;DHT22;11991;57.150;-2.134;2023-10-09T07:54:13;12.20;99.90
23629;DHT22;11991;57.150;-2.134;2023-10-09T07:56:59;12.30;99.90
23629;DHT22;11991;57.150;-2.134;2023-10-09T07:59:36;12.30;99.90
23629;DHT22;11991;57.150;-2.134;2023-10-09T08:02:08;12.30;99.90
23629;DHT22;11991;57.150;-2.134;2023-10-09T08:04:40;12.30;99.90
23629;DHT22;11991;57.150;-2.134;2023-10-09T08:07:16;12.30;99.90
23629;DHT22;11991;57.150;-2.134;2023-10-09T08:10:12;12.30;99.90
23629;DHT22;11991;57.150;-2.134;2023-10-09T08:12:46;12.30;99.90
23629;DHT22;11991;57.150;-2.134;2023-10-09T08:15:17;12.30;99.90
23629;DHT22;11991;57.150;-2.134;2023-10-09T08:17:56;12.30;99.90
23629;DHT22;11991;57.150;-2.134;2023-10-09T08:20:31;12.30;99.90
23629;DHT22;11991;57.150;-2.134;2023-10-09T08:23:16;12.30;99.90
23629;DHT22;11991;57.150;-2.134;2023-10-09T08:26:03;12.30;99.90
23629;DHT22;11991;57.150;-2.134;2023-10-09T08:28:41;12.30;99.90
23629;DHT22;11991;57.150;-2.134;2023-10-09T08:31:18;12.30;99.90
23629;DHT22;11991;57.150;-2.134;2023-10-09T08:33:46;12.30;99.90
23629;DHT22;11991;57.150;-2.134;2023-10-09T08:36:27;12.30;99.90
23629;DHT22;11991;57.150;-2.134;2023-10-09T08:39:04;12.30;99.90
23629;DHT22;11991;57.150;-2.134;2023-10-09T08:41:53;12.30;99.90
23629;DHT22;11991;57.150;-2.134;2023-10-09T08:44:20;12.30;99.90
23629;DHT22;11991;57.150;-2.134;2023-10-09T08:46:50;12.30;99.90
23629;DHT22;11991;57.150;-2.134;2023-10-09T08:49:17;12.30;99.90
23629;DHT22;11991;57.150;-2.134;2023-10-09T08:51:45;12.30;99.90
23629;DHT22;11991;57.150;-2.134;2023-10-09T08:54:14;12.30;99.90
23629;DHT22;11991;57.150;-2.134;2023-10-09T08:56:42;12.30;99.90
23629;DHT22;11991;57.150;-2.134;2023-10-09T08:59:19;12.30;99.90
23629;DHT22;11991;57.150;-2.134;2023-10-09T09:01:47;12.40;99.90
23629;DHT22;11991;57.150;-2.134;2023-10-09T09:04:53;12.40;99.90
23629;DHT22;11991;57.150;-2.134;2023-10-09T09:07:25;12.50;99.90
23629;DHT22;11991;57.150;-2.134;2023-10-09T09:09:59;12.50;99.90
23629;DHT22;11991;57.150;-2.134;2023-10-09T09:12:44;12.50;99.90
23629;DHT22;11991;57.150;-2.134;2023-10-09T09:15:14;12.50;99.90
23629;DHT22;11991;57.150;-2.134;2023-10-09T09:17:48;12.60;99.90
23629;DHT22;11991;57.150;-2.134;2023-10-09T09:20:25;12.60;99.90
23629;DHT22;11991;57.150;-2.134;2023-10-09T09:23:10;12.70;99.90
23629;DHT22;11991;57.150;-2.134;2023-10-09T09:28:15;12.70;99.90
23629;DHT22;11991;57.150;-2.134;2023-10-09T09:30:49;12.70;99.90
23629;DHT22;11991;57.150;-2.134;2023-10-09T09:33:24;12.80;99.90
23629;DHT22;11991;57.150;-2.134;2023-10-09T09:36:01;12.80;99.90
23629;DHT22;11991;57.150;-2.134;2023-10-09T09:38:34;12.80;99.90
23629;DHT22;11991;57.150;-2.134;2023-10-09T09:41:09;12.90;99.90
23629;DHT22;11991;57.150;-2.134;2023-10-09T09:43:37;12.90;99.90
23629;DHT22;11991;57.150;-2.134;2023-10-09T09:46:08;12.80;99.90
23629;DHT22;11991;57.150;-2.134;2023-10-09T09:48:38;12.80;99.90
23629;DHT22;11991;57.150;-2.134;2023-10-09T09:51:06;12.80;99.90
23629;DHT22;11991;57.150;-2.134;2023-10-09T09:53:35;12.80;99.90
23629;DHT22;11991;57.150;-2.134;2023-10-09T09:56:03;12.90;99.90
23629;DHT22;11991;57.150;-2.134;2023-10-09T09:58:31;13.00;99.90
23629;DHT22;11991;57.150;-2.134;2023-10-09T10:01:11;13.00;99.90
23629;DHT22;11991;57.150;-2.134;2023-10-09T10:03:59;13.00;99.90
23629;DHT22;11991;57.150;-2.134;2023-10-09T10:06:29;13.00;99.90
23629;DHT22;11991;57.150;-2.134;2023-10-09T10:08:59;13.00;99.90
23629;DHT22;11991;57.150;-2.134;2023-10-09T10:11:47;13.00;99.90
23629;DHT22;11991;57.150;-2.134;2023-10-09T10:14:21;13.00;99.90
23629;DHT22;11991;57.150;-2.134;2023-10-09T10:20:05;13.00;99.90
23629;DHT22;11991;57.150;-2.134;2023-10-09T10:22:45;13.00;99.90
23629;DHT22;11991;57.150;-2.134;2023-10-09T10:30:56;13.10;99.90
23629;DHT22;11991;57.150;-2.134;2023-10-09T10:36:26;13.10;99.90
23629;DHT22;11991;57.150;-2.134;2023-10-09T10:41:53;13.20;99.90
23629;DHT22;11991;57.150;-2.134;2023-10-09T10:44:31;13.30;99.90
23629;DHT22;11991;57.150;-2.134;2023-10-09T10:47:07;13.30;99.90
23629;DHT22;11991;57.150;-2.134;2023-10-09T10:49:52;13.40;99.90
23629;DHT22;11991;57.150;-2.134;2023-10-09T10:52:26;13.40;99.90
23629;DHT22;11991;57.150;-2.134;2023-10-09T10:55:13;13.50;99.90
23629;DHT22;11991;57.150;-2.134;2023-10-09T10:57:50;13.50;99.90
23629;DHT22;11991;57.150;-2.134;2023-10-09T11:00:21;13.60;99.90
23629;DHT22;11991;57.150;-2.134;2023-10-09T11:03:06;13.70;99.90
23629;DHT22;11991;57.150;-2.134;2023-10-09T11:05:45;13.70;99.90
23629;DHT22;11991;57.150;-2.134;2023-10-09T11:08:23;13.70;99.90
23629;DHT22;11991;57.150;-2.134;2023-10-09T11:10:51;13.80;99.90
23629;DHT22;11991;57.150;-2.134;2023-10-09T11:13:27;13.90;99.90
23629;DHT22;11991;57.150;-2.134;2023-10-09T11:15:58;14.00;99.90
23629;DHT22;11991;57.150;-2.134;2023-10-09T11:18:42;14.00;99.90
23629;DHT22;11991;57.150;-2.134;2023-10-09T11:21:16;14.10;99.90
23629;DHT22;11991;57.150;-2.134;2023-10-09T11:23:44;14.00;99.90
23629;DHT22;11991;57.150;-2.134;2023-10-09T11:26:34;14.00;99.90
23629;DHT22;11991;57.150;-2.134;2023-10-09T11:29:11;14.00;99.90
23629;DHT22;11991;57.150;-2.134;2023-10-09T11:31:42;14.00;99.90
23629;DHT22;11991;57.150;-2.134;2023-10-09T11:34:25;14.00;99.90
23629;DHT22;11991;57.150;-2.134;2023-10-09T11:39:39;14.10;99.90
23629;DHT22;11991;57.150;-2.134;2023-10-09T11:42:27;14.10;99.90
23629;DHT22;11991;57.150;-2.134;2023-10-09T11:45:21;14.10;99.90
23629;DHT22;11991;57.150;-2.134;2023-10-09T11:47:52;14.20;99.90
23629;DHT22;11991;57.150;-2.134;2023-10-09T11:50:43;14.30;99.90
23629;DHT22;11991;57.150;-2.134;2023-10-09T11:53:16;14.30;99.90
23629;DHT22;11991;57.150;-2.134;2023-10-09T11:55:50;14.30;99.90
23629;DHT22;11991;57.150;-2.134;2023-10-09T11:58:18;14.40;99.90
23629;DHT22;11991;57.150;-2.134;2023-10-09T12:00:55;14.40;99.90
23629;DHT22;11991;57.150;-2.134;2023-10-09T12:03:32;14.40;99.90
23629;DHT22;11991;57.150;-2.134;2023-10-09T12:06:02;14.40;99.90
23629;DHT22;11991;57.150;-2.134;2023-10-09T12:08:34;14.40;99.90
23629;DHT22;11991;57.150;-2.134;2023-10-09T12:11:03;14.50;99.90
23629;DHT22;11991;57.150;-2.134;2023-10-09T12:13:30;14.50;99.90
23629;DHT22;11991;57.150;-2.134;2023-10-09T12:15:58;14.60;99.90
23629;DHT22;11991;57.150;-2.134;2023-10-09T12:18:25;14.60;99.90
23629;DHT22;11991;57.150;-2.134;2023-10-09T12:20:55;14.70;99.90
23629;DHT22;11991;57.150;-2.134;2023-10-09T12:23:30;14.70;99.90
23629;DHT22;11991;57.150;-2.134;2023-10-09T12:26:03;14.70;99.90
23629;DHT22;11991;57.150;-2.134;2023-10-09T12:28:31;14.70;99.90
23629;DHT22;11991;57.150;-2.134;2023-10-09T12:31:01;14.80;99.90
23629;DHT22;11991;57.150;-2.134;2023-10-09T12:33:29;14.80;99.90
23629;DHT22;11991;57.150;-2.134;2023-10-09T12:35:57;14.80;99.90
23629;DHT22;11991;57.150;-2.134;2023-10-09T12:38:29;14.90;99.90
23629;DHT22;11991;57.150;-2.134;2023-10-09T12:41:07;14.90;99.90
23629;DHT22;11991;57.150;-2.134;2023-10-09T12:43:47;14.90;99.90
23629;DHT22;11991;57.150;-2.134;2023-10-09T12:46:15;14.90;99.90
23629;DHT22;11991;57.150;-2.134;2023-10-09T12:48:45;14.90;99.90
23629;DHT22;11991;57.150;-2.134;2023-10-09T12:51:16;14.90;99.90
23629;DHT22;11991;57.150;-2.134;2023-10-09T12:53:45;14.90;99.90
23629;DHT22;11991;57.150;-2.134;2023-10-09T12:56:15;14.90;99.90
23629;DHT22;11991;57.150;-2.134;2023-10-09T12:58:45;14.80;99.90
23629;DHT22;11991;57.150;-2.134;2023-10-09T13:01:20;14.70;99.90
23629;DHT22;11991;57.150;-2.134;2023-10-09T13:03:48;14.70;99.90
23629;DHT22;11991;57.150;-2.134;2023-10-09T13:06:18;14.60;99.90
23629;DHT22;11991;57.150;-2.134;2023-10-09T13:08:52;14.50;99.90
23629;DHT22;11991;57.150;-2.134;2023-10-09T13:11:19;14.40;99.90
23629;DHT22;11991;57.150;-2.134;2023-10-09T13:13:48;14.30;99.90
23629;DHT22;11991;57.150;-2.134;2023-10-09T13:16:21;14.20;99.90
23629;DHT22;11991;57.150;-2.134;2023-10-09T13:18:56;14.10;99.90
23629;DHT22;11991;57.150;-2.134;2023-10-09T13:21:28;14.10;99.90
23629;DHT22;11991;57.150;-2.134;2023-10-09T13:23:59;14.00;99.90
23629;DHT22;11991;57.150;-2.134;2023-10-09T13:26:29;14.00;99.90
23629;DHT22;11991;57.150;-2.134;2023-10-09T13:29:03;13.90;99.90
23629;DHT22;11991;57.150;-2.134;2023-10-09T13:31:31;13.90;99.90
23629;DHT22;11991;57.150;-2.134;2023-10-09T13:34:05;13.90;99.90
23629;DHT22;11991;57.150;-2.134;2023-10-09T13:36:42;13.90;99.90
23629;DHT22;11991;57.150;-2.134;2023-10-09T13:39:26;13.80;99.90
23629;DHT22;11991;57.150;-2.134;2023-10-09T13:41:56;13.80;99.90
23629;DHT22;11991;57.150;-2.134;2023-10-09T13:44:28;13.70;99.90
23629;DHT22;11991;57.150;-2.134;2023-10-09T13:47:00;13.80;99.90
23629;DHT22;11991;57.150;-2.134;2023-10-09T13:49:33;13.70;99.90
23629;DHT22;11991;57.150;-2.134;2023-10-09T13:52:02;13.70;99.90
23629;DHT22;11991;57.150;-2.134;2023-10-09T13:54:30;13.70;99.90
23629;DHT22;11991;57.150;-2.134;2023-10-09T13:57:03;13.70;99.90
23629;DHT22;11991;57.150;-2.134;2023-10-09T13:59:33;13.60;99.90
23629;DHT22;11991;57.150;-2.134;2023-10-09T14:02:03;13.60;99.90
23629;DHT22;11991;57.150;-2.134;2023-10-09T14:04:37;13.60;99.90
23629;DHT22;11991;57.150;-2.134;2023-10-09T14:07:05;13.60;99.90
23629;DHT22;11991;57.150;-2.134;2023-10-09T14:09:33;13.60;99.90
23629;DHT22;11991;57.150;-2.134;2023-10-09T14:12:12;13.60;99.90
23629;DHT22;11991;57.150;-2.134;2023-10-09T14:14:43;13.60;99.90
23629;DHT22;11991;57.150;-2.134;2023-10-09T14:17:23;13.60;99.90
23629;DHT22;11991;57.150;-2.134;2023-10-09T14:19:54;13.70;99.90
23629;DHT22;11991;57.150;-2.134;2023-10-09T14:22:23;13.70;99.90
23629;DHT22;11991;57.150;-2.134;2023-10-09T14:24:54;13.70;99.90
23629;DHT22;11991;57.150;-2.134;2023-10-09T14:27:27;13.70;99.90
23629;DHT22;11991;57.150;-2.134;2023-10-09T14:29:57;13.70;99.90
23629;DHT22;11991;57.150;-2.134;2023-10-09T14:32:28;13.70;99.90
23629;DHT22;11991;57.150;-2.134;2023-10-09T14:35:10;13.80;99.90
23629;DHT22;11991;57.150;-2.134;2023-10-09T14:37:41;13.80;99.90
23629;DHT22;11991;57.150;-2.134;2023-10-09T14:40:09;13.80;99.90
23629;DHT22;11991;57.150;-2.134;2023-10-09T14:42:48;13.90;99.90
23629;DHT22;11991;57.150;-2.134;2023-10-09T14:45:25;13.90;99.90
23629;DHT22;11991;57.150;-2.134;2023-10-09T14:47:54;13.90;99.90
23629;DHT22;11991;57.150;-2.134;2023-10-09T14:50:22;13.90;99.90
23629;DHT22;11991;57.150;-2.134;2023-10-09T14:52:50;13.90;99.90
23629;DHT22;11991;57.150;-2.134;2023-10-09T14:55:18;13.90;99.90
23629;DHT22;11991;57.150;-2.134;2023-10-09T14:57:48;13.90;99.90
23629;DHT22;11991;57.150;-2.134;2023-10-09T15:00:19;13.90;99.90
23629;DHT22;11991;57.150;-2.134;2023-10-09T15:02:52;13.90;99.90
23629;DHT22;11991;57.150;-2.134;2023-10-09T15:05:19;13.90;99.90
23629;DHT22;11991;57.150;-2.134;2023-10-09T15:07:52;13.90;99.90
23629;DHT22;11991;57.150;-2.134;2023-10-09T15:10:20;13.90;99.90
23629;DHT22;11991;57.150;-2.134;2023-10-09T15:12:50;13.90;99.90
23629;DHT22;11991;57.150;-2.134;2023-10-09T15:15:17;13.90;99.90
23629;DHT22;11991;57.150;-2.134;2023-10-09T15:17:46;13.80;99.90
23629;DHT22;11991;57.150;-2.134;2023-10-09T15:20:16;13.80;99.90
23629;DHT22;11991;57.150;-2.134;2023-10-09T15:22:44;13.80;99.90
23629;DHT22;11991;57.150;-2.134;2023-10-09T15:25:13;13.70;99.90
23629;DHT22;11991;57.150;-2.134;2023-10-09T15:27:43;13.70;99.90
23629;DHT22;11991;57.150;-2.134;2023-10-09T15:30:11;13.60;99.90
23629;DHT22;11991;57.150;-2.134;2023-10-09T15:32:42;13.60;99.90
23629;DHT22;11991;57.150;-2.134;2023-10-09T15:35:10;13.60;99.90
23629;DHT22;11991;57.150;-2.134;2023-10-09T15:37:41;13.60;99.90
23629;DHT22;11991;57.150;-2.134;2023-10-09T15:40:10;13.50;99.90
23629;DHT22;11991;57.150;-2.134;2023-10-09T15:42:46;13.50;99.90
23629;DHT22;11991;57.150;-2.134;2023-10-09T15:45:18;13.50;99.90
23629;DHT22;11991;57.150;-2.134;2023-10-09T15:47:49;13.50;99.90
23629;DHT22;11991;57.150;-2.134;2023-10-09T15:50:19;13.50;99.90
23629;DHT22;11991;57.150;-2.134;2023-10-09T15:52:52;13.50;99.90
23629;DHT22;11991;57.150;-2.134;2023-10-09T15:55:22;13.50;99.90
23629;DHT22;11991;57.150;-2.134;2023-10-09T15:57:52;13.40;99.90
23629;DHT22;11991;57.150;-2.134;2023-10-09T16:00:21;13.40;99.90
23629;DHT22;11991;57.150;-2.134;2023-10-09T16:02:56;13.40;99.90
23629;DHT22;11991;57.150;-2.134;2023-10-09T16:05:24;13.50;99.90
23629;DHT22;11991;57.150;-2.134;2023-10-09T16:07:55;13.40;99.90
23629;DHT22;11991;57.150;-2.134;2023-10-09T16:10:22;13.40;99.90
23629;DHT22;11991;57.150;-2.134;2023-10-09T16:12:50;13.40;99.90
23629;DHT22;11991;57.150;-2.134;2023-10-09T16:15:20;13.30;99.90
23629;DHT22;11991;57.150;-2.134;2023-10-09T16:17:51;13.30;99.90
23629;DHT22;11991;57.150;-2.134;2023-10-09T16:20:26;13.30;99.90
23629;DHT22;11991;57.150;-2.134;2023-10-09T16:22:53;13.30;99.90